createdAt,value
2022-10-02T00:14:36.138Z,30.373
2022-10-02T00:29:37.988Z,30.029
2022-10-02T00:44:39.808Z,30.349
2022-10-02T00:59:41.629Z,29.426
2022-10-02T01:14:43.484Z,29.237
2022-10-02T01:29:45.319Z,29.479
2022-10-02T01:44:47.161Z,30.167
2022-10-02T01:59:48.996Z,30.15
2022-10-02T02:14:50.817Z,29.689
2022-10-02T02:29:52.667Z,30.08
2022-10-02T02:44:54.531Z,30.465
2022-10-02T02:59:56.358Z,30.739
2022-10-02T03:14:58.201Z,31.209
2022-10-02T03:30:00.028Z,30.835
2022-10-02T03:45:01.858Z,30.713
2022-10-02T04:00:03.704Z,30.618
2022-10-02T04:15:05.565Z,30.863
2022-10-02T04:30:07.397Z,30.628
2022-10-02T04:45:09.208Z,30.713
2022-10-02T05:00:11.056Z,30.735
2022-10-02T05:15:12.888Z,30.688
2022-10-02T05:30:14.733Z,30.887
2022-10-02T05:45:16.581Z,30.882
2022-10-02T06:00:18.425Z,30.546
2022-10-02T06:15:20.259Z,30.233
2022-10-02T06:30:22.114Z,29.906
2022-10-02T06:45:24.021Z,29.921
2022-10-02T07:00:25.856Z,30.398
2022-10-02T07:15:27.692Z,30.711
2022-10-02T07:30:29.526Z,29.104
2022-10-02T07:45:31.403Z,29.622
2022-10-02T08:00:33.299Z,29.431
2022-10-02T08:15:35.112Z,29.493
2022-10-02T08:30:36.922Z,29.638
2022-10-02T08:45:38.871Z,30.236
2022-10-02T09:00:40.823Z,30.97
2022-10-02T09:15:42.719Z,31.193
2022-10-02T09:30:44.581Z,31.328
2022-10-02T09:45:46.424Z,31.516
2022-10-02T10:00:48.340Z,31.684
2022-10-02T10:15:50.234Z,31.575
2022-10-02T10:30:52.076Z,31.826
2022-10-02T10:45:53.968Z,31.877
2022-10-02T11:00:55.929Z,31.96
2022-10-02T11:15:57.778Z,31.99
2022-10-02T11:30:59.605Z,31.967
2022-10-02T11:46:01.574Z,32.126
2022-10-02T12:01:03.437Z,31.955
2022-10-02T12:16:05.317Z,32.344
2022-10-02T12:31:07.207Z,32.417
2022-10-02T12:46:09.076Z,32.206
2022-10-02T13:01:10.994Z,32.142
2022-10-02T13:16:12.922Z,32.283
2022-10-02T13:31:14.817Z,32.274
2022-10-02T13:46:16.735Z,32.269
2022-10-02T14:01:18.709Z,32.457
2022-10-02T14:16:20.686Z,32.629
2022-10-02T14:31:22.620Z,33.054
2022-10-02T14:46:24.511Z,33.292
2022-10-02T15:01:26.410Z,33.706
2022-10-02T15:16:28.352Z,34.11
2022-10-02T15:31:30.319Z,33.751
2022-10-02T15:46:32.185Z,34.706
2022-10-02T16:01:34.238Z,33.94
2022-10-02T16:16:36.554Z,34.007
2022-10-02T16:31:38.620Z,34.368
2022-10-02T16:46:40.745Z,35.205
2022-10-02T17:01:59.028Z,35.968
2022-10-02T17:17:14.820Z,35.629
2022-10-02T17:32:16.643Z,34.546
2022-10-02T17:47:18.492Z,33.444
2022-10-02T18:02:20.441Z,33.412
2022-10-02T18:17:22.316Z,33.481
2022-10-02T18:32:24.231Z,33.651
2022-10-02T18:47:26.140Z,32.37
2022-10-02T19:02:28.011Z,32.278
2022-10-02T19:17:29.879Z,32.312
2022-10-02T19:32:31.719Z,31.764
2022-10-02T19:47:33.563Z,31.659
2022-10-02T20:02:35.483Z,31.347
2022-10-02T20:17:37.377Z,31.015
2022-10-02T20:32:39.214Z,30.802
2022-10-02T20:47:41.075Z,30.05
2022-10-02T21:02:42.910Z,30.01
2022-10-02T21:17:44.747Z,29.774
2022-10-02T21:32:46.603Z,29.805
2022-10-02T21:47:48.442Z,28.369
2022-10-02T22:02:50.295Z,29.042
2022-10-02T22:17:52.155Z,28.016
2022-10-02T22:32:53.981Z,28.521
2022-10-02T22:47:55.796Z,28.093
2022-10-02T23:02:57.709Z,29.038
2022-10-02T23:17:59.619Z,29.541
2022-10-02T23:33:01.449Z,30.409
2022-10-02T23:48:03.310Z,31.767
